Sweeney Granite Mountains, California Weather observations

Data are for 10 minute period ending at time listed.
 Day   Time   Solar   Ave.   Ave.  Ave.  Vector  Max.   Baro.   Total    
  of    of     Rad.   Air    Rel.  Wind   Wind   Wind  Press.  Precip.   
Year   Day            Temp.  Hum.  Speed  Dir.   Gust                    
2014   (PST)  Kw/m2    F      %     mph   deg.    mph    mb.     in.     
-------------------------------------------------------------------------
 263    0:00   0.00   65.8    36    1.2   117     2.5   868.6    0.00 
 263    0:10   0.00   66.6    35    2.3   113     3.1   868.5    0.00 
 263    0:20   0.00   67.0    34    2.1   119     2.7   868.5    0.00 
 263    0:30   0.00   66.9    35    1.7   114     2.4   868.6    0.00 
 263    0:40   0.00   66.2    36    0.2   129     1.3   868.5    0.00 
 263    0:50   0.00   64.8    39    0.0     0     0.0   868.5    0.00 
 263    1:00   0.00   64.4    40    1.1   277     2.9   868.5    0.00 
 263    1:10   0.00   64.5    40    2.1   284     3.1   868.5    0.00 
 263    1:20   0.00   64.8    40    1.8   290     2.2   868.5    0.00 
 263    1:30   0.00   64.5    40    1.6   292     2.3   868.5    0.00 
 263    1:40   0.00   63.7    42    1.1   290     1.6   868.5    0.00 
 263    1:50   0.00   62.6    43    1.6   284     2.5   868.4    0.00 
 263    2:00   0.00   64.1    40    0.9   300     2.0   868.4    0.00 
 263    2:10   0.00   63.7    41    1.6   284     3.1   868.5    0.00 
 263    2:20   0.00   63.0    42    1.8   284     2.4   868.4    0.00 
 263    2:30   0.00   63.0    42    1.8   285     2.4   868.4    0.00 
 263    2:40   0.00   62.2    44    0.4   296     1.9   868.4    0.00 
 263    2:50   0.00   63.3    41    1.7   282     2.8   868.3    0.00 
 263    3:00   0.00   64.1    40    1.9   289     2.9   868.3    0.00 
 263    3:10   0.00   61.6    45    2.8   286     3.7   868.3    0.00 
 263    3:20   0.00   61.8    45    2.9   284     3.7   868.3    0.00 
 263    3:30   0.00   63.0    44    2.6   277     3.4   868.4    0.00 
 263    3:40   0.00   63.3    44    2.6   292     3.4   868.4    0.00 
 263    3:50   0.00   62.7    45    2.5   290     3.5   868.4    0.00 
 263    4:00   0.00   62.7    45    1.8   283     3.2   868.4    0.00 
 263    4:10   0.00   63.8    43    2.6   276     3.9   868.5    0.00 
 263    4:20   0.00   63.1    44    2.1   274     2.9   868.5    0.00 
 263    4:30   0.00   64.9    41    2.5   298     4.1   868.6    0.00 
 263    4:40   0.00   64.5    42    1.5   296     2.6   868.7    0.00 
 263    4:50   0.00   64.7    42    1.8   283     3.4   868.7    0.00 
 263    5:00   0.00   64.1    42    2.1   298     3.3   868.8    0.00 
 263    5:10   0.00   64.1    43    2.6   284     4.2   868.8    0.00 
 263    5:20   0.00   65.6    40    3.0   282     4.2   869.0    0.00 
 263    5:30   0.00   63.9    42    1.9   284     3.4   869.1    0.00 
 263    5:40   0.00   65.8    38    2.3   305     3.7   869.1    0.00 
 263    5:50   0.01   65.4    40    1.1     2     2.6   869.3    0.00 
 263    6:00   0.03   66.5    38    2.5    42     5.8   869.3    0.00 
 263    6:10   0.05   70.7    32    4.7    57     8.6   869.4    0.00 
 263    6:20   0.05   72.2    31    4.3    64     6.9   869.5    0.00 
 263    6:30   0.09   72.5    31    4.7    64     7.3   869.7    0.00 
 263    6:40   0.14   74.1    29    4.8    59     7.0   869.7    0.00 
 263    6:50   0.17   75.4    25    4.3    78     7.0   869.9    0.00 
 263    7:00   0.14   76.0    23    3.6    83     5.3   870.1    0.00 
 263    7:10   0.15   75.6    24    4.0    99     6.3   870.2    0.00 
 263    7:20   0.20   76.5    23    4.6   103     6.9   870.3    0.00 
 263    7:30   0.24   77.0    24    4.4   107     6.4   870.3    0.00 
 263    7:40   0.18   76.9    24    3.3   104     5.2   870.4    0.00 
 263    7:50   0.42   78.6    23    2.0   138     3.7   870.4    0.00 
 263    8:00   0.46   79.1    23    3.9   137     7.7   870.5    0.00 
 263    8:10   0.49   79.5    24    3.5    96     6.4   870.6    0.00 
 263    8:20   0.52   80.1    24    3.3   112     8.0   870.7    0.00 
 263    8:30   0.55   79.7    24    5.5    98     8.0   870.8    0.00 
 263    8:40   0.59   80.0    25    5.3   121    10.6   870.9    0.00 
 263    8:50   0.61   80.7    25    5.7   124    10.2   871.0    0.00 
 263    9:00   0.53   79.6    27    6.1   121    10.5   871.0    0.00 
 263    9:10   0.66   80.6    27    7.4   106    13.4   871.1    0.00 
 263    9:20   0.60   80.0    28    6.8   102    12.9   871.2    0.00 
 263    9:30   0.45   79.4    31    7.1   108    13.8   871.2    0.00 
 263    9:40   0.39   78.3    33    6.5   123    17.2   871.2    0.00 
 263    9:50   0.35   78.9    34    7.4   117    14.0   871.2    0.00 
 263   10:00   0.38   78.2    39    9.1   109    16.0   871.2    0.00 
 263   10:10   0.39   78.2    38    9.5   115    14.3   871.2    0.00 
 263   10:20   0.35   78.0    38    7.0   124    12.7   871.2    0.00 
 263   10:30   0.36   78.0    36    7.1   121    13.4   871.2    0.00 
 263   10:40   0.26   78.5    36    5.6   127    12.7   871.1    0.00 
 263   10:50   0.29   78.0    40    6.2   121    12.4   871.1    0.00 
 263   11:00   0.29   77.5    40    6.2   123    11.2   871.1    0.00 
 263   11:10   0.39   78.4    36    6.8   118    11.9   870.9    0.00 
 263   11:20   0.42   78.4    40    7.0   125    12.1   870.9    0.00 
 263   11:30   0.27   77.8    40    6.8   113    15.4   870.9    0.00 
 263   11:40   0.32   77.8    37    7.7   118    13.6   870.9    0.00 
 263   11:50   0.34   77.9    38    5.9   116    12.6   870.8    0.00 
 263   12:00   0.34   78.3    39    6.0   125    13.6   870.6    0.00 
 263   12:10   0.23   78.5    38    8.3   120    11.8   870.5    0.00 
 263   12:20   0.36   78.3    38    8.7   121    15.0   870.4    0.00 
 263   12:30   0.53   79.0    36    6.8   126    13.4   870.2    0.00 
 263   12:40   0.45   79.6    36    5.0   130    13.5   870.1    0.00 
 263   12:50   0.36   80.1    34    5.3   130    15.1   870.0    0.00 
 263   13:00   0.28   78.4    34    9.0   112    16.7   869.9    0.00 
 263   13:10   0.49   79.1    33    9.7   123    15.9   869.9    0.00 
 263   13:20   0.32   79.1    33    7.8   117    15.6   869.8    0.00 
 263   13:30   0.24   79.1    33    8.2   118    13.3   869.6    0.00 
 263   13:40   0.22   78.6    32    8.8   117    16.4   869.6    0.00 
 263   13:50   0.17   78.5    31    6.0   111    13.1   869.6    0.00 
 263   14:00   0.14   78.5    32    7.8   120    15.6   869.5    0.00 
 263   14:10   0.17   78.0    33    7.5   117    12.8   869.4    0.00 
 263   14:20   0.21   78.8    32    7.3   123    12.4   869.3    0.00 
 263   14:30   0.23   78.9    30    8.1   115    16.4   869.2    0.00 
 263   14:40   0.17   79.1    29    9.7   121    16.2   869.1    0.00 
 263   14:50   0.19   79.2    27    7.8   118    16.4   869.0    0.00 
 263   15:00   0.18   79.4    24   10.2   126    15.4   869.0    0.00 
 263   15:10   0.14   79.5    25    9.8   117    15.6   869.0    0.00 
 263   15:20   0.28   79.8    26    5.9   116    12.0   868.9    0.00 
 263   15:30   0.18   80.8    25    6.4   135    13.1   868.8    0.00 
 263   15:40   0.37   80.7    26    9.2   121    16.8   868.7    0.00 
 263   15:50   0.10   79.8    29    6.5   123    12.0   868.7    0.00 
 263   16:00   0.08   78.7    30    8.2   126    13.7   868.7    0.00 
 263   16:10   0.15   78.8    30    6.8   125    13.9   868.6    0.00 
 263   16:20   0.33   80.4    29    7.6   124    12.4   868.6    0.00 
 263   16:30   0.25   80.5    29    7.7   112    11.2   868.6    0.00 
 263   16:40   0.20   80.1    29    9.3   118    13.2   868.6    0.00 
 263   16:50   0.16   80.0    29    6.7   126    12.4   868.5    0.00 
 263   17:00   0.07   78.8    30    8.4   117    11.0   868.5    0.00 
 263   17:10   0.01   77.5    31    7.3   118    11.5   868.5    0.00 
 263   17:20   0.01   77.1    32    6.1   126     9.8   868.6    0.00 
 263   17:30   0.00   76.0    33    4.4   109     6.3   868.6    0.00 
 263   17:40   0.00   74.9    35    3.8   104     5.1   868.6    0.00 
 263   17:50   0.00   74.8    35    2.8   106     4.1   868.5    0.00 
 263   18:00   0.00   74.8    36    3.0   108     3.9   868.4    0.00 
 263   18:10   0.00   74.3    37    4.4   101     5.6   868.4    0.00 
 263   18:20   0.00   73.7    39    4.6   102     6.1   868.3    0.00 
 263   18:30   0.00   73.5    40    5.2   102     7.3   868.3    0.00 
 263   18:40   0.00   73.4    41    4.6   103     6.6   868.2    0.00 
 263   18:50   0.00   73.4    42    4.2    95     5.3   868.3    0.00 
 263   19:00   0.00   73.7    41    3.3   103     4.7   868.4    0.00 
 263   19:10   0.00   73.6    42    1.5   110     3.0   868.6    0.00 
 263   19:20   0.00   72.0    44    0.0     0     0.0   868.7    0.00 
 263   19:30   0.00   70.1    46    0.0     0     0.0   868.8    0.00 
 263   19:40   0.00   69.6    47    1.1    96     2.9   868.8    0.00 
 263   19:50   0.00   70.6    46    3.0   106     4.7   868.7    0.00 
 263   20:00   0.00   72.3    44    3.3    99     5.1   868.7    0.00 
 263   20:10   0.00   72.0    45    2.2   100     3.4   868.6    0.00 
 263   20:20   0.00   70.6    47    1.8   108     2.5   868.7    0.00 
 263   20:30   0.00   69.4    49    1.7    87     3.3   868.7    0.00 
 263   20:40   0.00   69.1    49    0.3    91     2.0   868.7    0.00 
 263   20:50   0.00   69.3    49    0.7    58     2.2   868.7    0.00 
 263   21:00   0.00   70.2    48    0.4    73     2.2   868.7    0.00 
 263   21:10   0.00   70.3    48    1.6   268     3.9   868.9    0.00 
 263   21:20   0.00   70.3    48    0.8   272     2.6   869.0    0.00 
 263   21:30   0.00   69.2    49    1.8   278     3.9   869.0    0.00 
 263   21:40   0.00   70.6    46    1.4   291     2.6   869.1    0.00 
 263   21:50   0.00   70.5    44    2.4   285     3.8   869.1    0.00 
 263   22:00   0.00   70.6    43    1.9   294     3.0   869.1    0.00 

Return to Sweeney Granite Mountains graphs page.


Western Regional Climate Center,wrcc@dri.edu